createdAt,value
2016-06-15T00:00:30.378Z,0
2016-06-15T00:01:30.397Z,0
2016-06-15T00:02:31.869Z,0
2016-06-15T00:03:43.169Z,0
2016-06-15T00:04:30.750Z,0
2016-06-15T00:05:30.487Z,0
2016-06-15T00:06:30.522Z,0
2016-06-15T00:07:30.368Z,0
2016-06-15T00:08:49.871Z,0
2016-06-15T00:09:33.843Z,0
2016-06-15T00:10:33.847Z,0
2016-06-15T00:11:33.880Z,0
2016-06-15T00:12:33.900Z,0
2016-06-15T00:13:35.324Z,0
2016-06-15T00:14:34.093Z,0
2016-06-15T00:15:53.143Z,0
2016-06-15T00:16:34.037Z,0
2016-06-15T00:17:59.649Z,0
2016-06-15T00:18:53.215Z,0
2016-06-15T00:19:34.593Z,0
2016-06-15T00:20:53.268Z,0
2016-06-15T00:23:02.977Z,0
2016-06-15T00:23:37.278Z,0
2016-06-15T00:24:40.311Z,0
2016-06-15T00:26:03.002Z,0
2016-06-15T00:26:37.333Z,0
2016-06-15T00:28:08.729Z,0
2016-06-15T00:28:37.354Z,0
2016-06-15T00:29:37.389Z,0
2016-06-15T00:30:37.376Z,0
2016-06-15T00:31:50.130Z,0
2016-06-15T00:32:40.477Z,0
2016-06-15T00:34:47.061Z,0
2016-06-15T00:35:47.157Z,0
2016-06-15T00:36:50.349Z,0
2016-06-15T00:37:50.210Z,0
2016-06-15T00:38:47.245Z,0
2016-06-15T00:39:53.514Z,0
2016-06-15T00:40:50.345Z,0
2016-06-15T00:41:47.238Z,0
2016-06-15T00:42:47.273Z,0
2016-06-15T00:44:00.026Z,0
2016-06-15T00:44:50.185Z,0
2016-06-15T00:47:22.569Z,0
2016-06-15T00:47:56.976Z,0
2016-06-15T00:48:57.088Z,0
2016-06-15T00:49:57.044Z,0
2016-06-15T00:50:57.047Z,0
2016-06-15T00:52:09.788Z,0
2016-06-15T00:52:57.069Z,0
2016-06-15T00:53:57.182Z,0
2016-06-15T00:54:57.138Z,0
2016-06-15T00:56:00.188Z,0
2016-06-15T00:56:57.207Z,0
2016-06-15T00:57:57.210Z,0
2016-06-15T00:58:57.072Z,0
2016-06-15T00:59:57.111Z,0
2016-06-15T01:01:10.096Z,0
2016-06-15T01:01:58.831Z,0
2016-06-15T01:03:16.656Z,0
2016-06-15T01:03:57.391Z,0
2016-06-15T01:04:57.532Z,0
2016-06-15T01:05:58.094Z,0
2016-06-15T01:06:57.673Z,0
2016-06-15T01:07:57.626Z,0
2016-06-15T01:08:57.635Z,0
2016-06-15T01:09:57.504Z,0
2016-06-15T01:11:10.317Z,0
2016-06-15T01:12:00.723Z,0
2016-06-15T01:12:57.777Z,0
2016-06-15T01:14:10.506Z,0
2016-06-15T01:14:57.787Z,0
2016-06-15T01:16:23.547Z,0
2016-06-15T01:17:17.004Z,0
2016-06-15T01:18:29.150Z,0
2016-06-15T01:18:57.884Z,0
2016-06-15T01:19:58.371Z,0
2016-06-15T01:21:10.645Z,0
2016-06-15T01:21:58.004Z,0
2016-06-15T01:22:57.946Z,0
2016-06-15T01:23:59.402Z,0
2016-06-15T01:25:10.720Z,0
2016-06-15T01:25:58.127Z,0
2016-06-15T01:27:17.227Z,0
2016-06-15T01:27:59.462Z,0
2016-06-15T01:29:55.030Z,0
2016-06-15T01:30:07.720Z,0
2016-06-15T01:31:07.552Z,0
2016-06-15T01:32:07.757Z,0
2016-06-15T01:33:09.214Z,0
2016-06-15T01:34:07.794Z,0
2016-06-15T01:35:26.720Z,0
2016-06-15T01:36:07.800Z,0
2016-06-15T01:38:10.401Z,0
2016-06-15T01:38:23.245Z,0
2016-06-15T01:39:23.107Z,0
2016-06-15T01:40:23.173Z,0
2016-06-15T01:41:23.113Z,0
2016-06-15T01:42:23.163Z,0
2016-06-15T01:43:23.197Z,0
2016-06-15T01:44:23.217Z,0
2016-06-15T01:45:35.969Z,0
2016-06-15T01:46:23.253Z,0
2016-06-15T01:47:23.272Z,0
2016-06-15T01:48:24.698Z,0
2016-06-15T01:49:23.169Z,0
2016-06-15T01:50:35.891Z,0
2016-06-15T01:51:36.113Z,0
2016-06-15T01:52:23.350Z,0
2016-06-15T01:53:23.385Z,0
2016-06-15T01:54:23.372Z,0
2016-06-15T01:55:24.859Z,0
2016-06-15T01:56:23.394Z,0
2016-06-15T01:57:42.756Z,0
2016-06-15T01:58:23.462Z,0
2016-06-15T01:59:49.169Z,0
2016-06-15T02:00:24.938Z,0
2016-06-15T02:01:49.206Z,0
2016-06-15T02:02:33.147Z,0
2016-06-15T02:03:33.181Z,0
2016-06-15T02:04:33.247Z,4
2016-06-15T02:05:47.062Z,4
2016-06-15T02:06:45.831Z,4
2016-06-15T02:07:55.506Z,4
2016-06-15T02:08:33.337Z,4
2016-06-15T02:09:33.309Z,0
2016-06-15T02:10:46.093Z,4
2016-06-15T02:11:46.050Z,4
2016-06-15T02:12:52.584Z,4
2016-06-15T02:13:59.103Z,4
2016-06-15T02:14:46.137Z,4
2016-06-15T02:15:33.406Z,4
2016-06-15T02:17:43.068Z,4
2016-06-15T02:18:43.071Z,8
2016-06-15T02:19:42.933Z,8
2016-06-15T02:20:43.405Z,8
2016-06-15T02:21:55.799Z,8
2016-06-15T02:22:50.662Z,8
2016-06-15T02:23:43.164Z,8
2016-06-15T02:24:43.184Z,12
2016-06-15T02:25:44.670Z,12
2016-06-15T02:27:02.423Z,16
2016-06-15T02:27:43.239Z,12
2016-06-15T02:28:43.274Z,12
2016-06-15T02:29:43.276Z,16
2016-06-15T02:30:43.311Z,20
2016-06-15T02:31:43.313Z,16
2016-06-15T02:32:44.755Z,20
2016-06-15T02:33:43.367Z,24
2016-06-15T02:34:56.151Z,24
2016-06-15T02:35:56.451Z,32
2016-06-15T02:37:02.626Z,32
2016-06-15T02:37:59.379Z,32
2016-06-15T02:38:46.616Z,36
2016-06-15T02:40:07.341Z,44
2016-06-15T02:40:59.404Z,48
2016-06-15T02:41:46.751Z,52
2016-06-15T02:42:46.691Z,56
2016-06-15T02:44:49.276Z,64
2016-06-15T02:45:02.026Z,64
2016-06-15T02:46:01.998Z,76
2016-06-15T02:47:14.785Z,84
2016-06-15T02:48:02.066Z,92
2016-06-15T02:49:27.744Z,104
2016-06-15T02:50:11.701Z,108
2016-06-15T02:51:24.469Z,116
2016-06-15T02:52:11.785Z,124
2016-06-15T02:53:37.428Z,132
2016-06-15T02:54:47.088Z,136
2016-06-15T02:55:47.107Z,148
2016-06-15T02:56:22.735Z,152
2016-06-15T02:57:21.471Z,164
2016-06-15T02:58:40.710Z,180
2016-06-15T02:59:34.258Z,196
2016-06-15T03:00:52.825Z,216
2016-06-15T03:01:21.531Z,220
2016-06-15T03:02:21.613Z,232
2016-06-15T03:03:21.553Z,240
2016-06-15T03:04:34.321Z,244
2016-06-15T03:05:35.121Z,252
2016-06-15T03:07:43.972Z,276
2016-06-15T03:08:56.725Z,292
2016-06-15T03:09:47.056Z,308
2016-06-15T03:10:44.042Z,312
2016-06-15T03:11:47.171Z,328
2016-06-15T03:12:56.815Z,344
2016-06-15T03:13:57.006Z,368
2016-06-15T03:15:09.793Z,396
2016-06-15T03:15:57.058Z,412
2016-06-15T03:17:09.815Z,440
2016-06-15T03:17:47.190Z,468
2016-06-15T03:20:01.039Z,548
2016-06-15T03:21:00.027Z,580
2016-06-15T03:22:12.236Z,616
2016-06-15T03:22:59.517Z,644
2016-06-15T03:24:30.992Z,704
2016-06-15T03:25:12.293Z,740
2016-06-15T03:28:02.174Z,872
2016-06-15T03:28:46.130Z,904
2016-06-15T03:29:14.883Z,924
2016-06-15T03:31:27.670Z,1016
2016-06-15T03:32:14.907Z,1048
2016-06-15T03:33:27.676Z,1096
2016-06-15T03:34:14.821Z,1124
2016-06-15T03:35:40.979Z,1180
2016-06-15T03:36:29.061Z,1224
2016-06-15T03:37:44.017Z,1332
2016-06-15T03:38:37.692Z,1436
2016-06-15T03:39:56.148Z,1596
2016-06-15T03:40:56.182Z,1748
2016-06-15T03:41:59.342Z,1900
2016-06-15T03:42:59.345Z,2032
2016-06-15T03:44:28.101Z,2212
2016-06-15T03:45:28.183Z,2312
2016-06-15T03:46:40.950Z,2412
2016-06-15T03:47:31.236Z,2476
2016-06-15T03:49:25.195Z,2512
2016-06-15T03:49:39.288Z,2516
2016-06-15T03:50:37.744Z,2536
2016-06-15T03:51:41.013Z,2540
2016-06-15T03:52:39.328Z,2524
2016-06-15T03:53:50.691Z,2480
2016-06-15T03:54:37.834Z,2468
2016-06-15T03:56:40.575Z,2580
2016-06-15T03:56:53.247Z,2596
2016-06-15T03:57:53.312Z,2680
2016-06-15T03:59:06.020Z,2832
2016-06-15T03:59:56.350Z,2948
2016-06-15T04:01:56.575Z,3212
2016-06-15T04:02:09.843Z,3236
2016-06-15T04:03:09.300Z,3324
2016-06-15T04:04:34.958Z,3468
2016-06-15T04:05:12.353Z,3572
2016-06-15T04:06:09.009Z,3772
2016-06-15T04:07:15.593Z,4020
2016-06-15T04:08:36.237Z,4396
2016-06-15T04:09:09.237Z,4512
2016-06-15T04:11:43.918Z,4788
2016-06-15T04:12:24.733Z,4872
2016-06-15T04:13:24.768Z,5020
2016-06-15T04:14:37.536Z,5104
2016-06-15T04:15:26.212Z,5080
2016-06-15T04:16:50.495Z,4852
2016-06-15T04:17:37.593Z,4680
2016-06-15T04:19:27.427Z,4404
2016-06-15T04:20:05.771Z,4352
2016-06-15T04:20:41.274Z,4344
2016-06-15T04:22:14.468Z,4396
2016-06-15T04:22:54.233Z,4408
2016-06-15T04:26:11.887Z,4496
2016-06-15T04:27:37.623Z,4552
2016-06-15T04:28:47.252Z,4604
2016-06-15T04:29:40.833Z,4776
2016-06-15T04:30:24.805Z,4916
2016-06-15T04:31:44.011Z,5152
2016-06-15T04:32:34.202Z,5328
2016-06-15T04:33:53.533Z,5708
2016-06-15T04:34:40.630Z,5844
2016-06-15T04:35:53.601Z,5952
2016-06-15T04:36:50.136Z,6508
2016-06-15T04:37:37.607Z,7044
2016-06-15T04:39:50.223Z,7204
2016-06-15T04:41:09.570Z,7592
2016-06-15T04:41:50.463Z,7748
2016-06-15T04:43:16.016Z,8096
2016-06-15T04:44:01.500Z,8240
2016-06-15T04:45:19.209Z,8604
2016-06-15T04:46:03.163Z,8980
2016-06-15T04:48:02.465Z,9604
2016-06-15T04:48:15.157Z,9668
2016-06-15T04:50:42.319Z,10988
2016-06-15T04:51:26.728Z,13120
2016-06-15T04:53:26.328Z,18912
2016-06-15T04:53:51.750Z,18784
2016-06-15T04:54:39.019Z,19840
2016-06-15T04:56:37.478Z,18784
2016-06-15T04:57:08.993Z,18048
2016-06-15T04:58:02.826Z,15744
2016-06-15T05:00:18.037Z,17952
2016-06-15T05:01:18.088Z,19392
2016-06-15T05:02:18.106Z,15264
2016-06-15T05:03:25.812Z,15584
2016-06-15T05:04:37.347Z,17184
2016-06-15T05:05:43.818Z,16544
2016-06-15T05:06:44.915Z,17216
2016-06-15T05:07:49.496Z,16992
2016-06-15T05:08:49.500Z,12792
2016-06-15T05:09:59.143Z,9548
2016-06-15T05:10:59.256Z,9204
2016-06-15T05:12:02.477Z,8788
2016-06-15T05:13:28.921Z,9088
2016-06-15T05:14:38.549Z,9932
2016-06-15T05:15:48.240Z,13120
2016-06-15T05:18:34.749Z,13196
2016-06-15T05:19:13.144Z,13320
2016-06-15T05:19:47.503Z,15072
2016-06-15T05:21:10.567Z,14912
2016-06-15T05:21:55.275Z,14524
2016-06-15T05:24:30.204Z,14816
2016-06-15T05:26:39.476Z,16096
2016-06-15T05:28:54.749Z,20896
2016-06-15T05:29:54.627Z,22144
2016-06-15T05:31:14.055Z,23200
2016-06-15T05:31:54.711Z,22496
2016-06-15T05:33:20.545Z,21376
2016-06-15T05:33:54.889Z,21760
2016-06-15T05:36:10.271Z,21664
2016-06-15T05:38:07.104Z,21888
2016-06-15T05:40:14.285Z,23360
2016-06-15T05:43:04.745Z,16800
2016-06-15T05:43:39.184Z,16704
2016-06-15T05:45:10.641Z,16064
2016-06-15T05:45:48.988Z,17280
2016-06-15T05:47:20.338Z,19616
2016-06-15T05:47:49.088Z,18976
2016-06-15T05:49:20.344Z,13832
2016-06-15T05:50:04.313Z,13172
2016-06-15T05:51:04.956Z,11680
2016-06-15T05:52:17.120Z,11468
2016-06-15T05:53:17.122Z,14600
2016-06-15T05:55:39.581Z,17632
2016-06-15T05:56:33.350Z,16064
2016-06-15T05:57:45.525Z,14604
2016-06-15T05:59:48.062Z,13760
2016-06-15T06:00:00.734Z,13872
2016-06-15T06:01:00.769Z,14268
2016-06-15T06:02:00.787Z,14828
2016-06-15T06:03:20.012Z,17120
2016-06-15T06:04:13.625Z,16960
2016-06-15T06:06:03.971Z,17856
2016-06-15T06:06:38.912Z,18624
2016-06-15T06:07:19.744Z,20736
2016-06-15T06:09:18.139Z,25824
2016-06-15T06:10:40.393Z,22048
2016-06-15T06:13:47.091Z,21408
2016-06-15T06:14:21.374Z,22048
2016-06-15T06:15:52.722Z,20256
2016-06-15T06:16:33.989Z,18304
2016-06-15T06:17:21.509Z,16064
2016-06-15T06:18:47.277Z,14452
2016-06-15T06:19:31.234Z,14120
2016-06-15T06:20:31.252Z,13824
2016-06-15T06:21:31.365Z,13472
2016-06-15T06:22:31.337Z,13152
2016-06-15T06:23:44.121Z,12924
2016-06-15T06:24:44.171Z,12768
2016-06-15T06:25:53.314Z,12692
2016-06-15T06:26:50.645Z,12660
2016-06-15T06:28:02.773Z,12520
2016-06-15T06:29:12.230Z,12396
2016-06-15T06:30:43.720Z,12132
2016-06-15T06:31:59.286Z,11916
2016-06-15T06:32:27.976Z,11828
2016-06-15T06:33:28.105Z,11704
2016-06-15T06:34:40.655Z,11636
2016-06-15T06:35:29.705Z,11608
2016-06-15T06:37:30.491Z,11600
2016-06-15T06:37:43.178Z,11628
2016-06-15T06:38:43.198Z,11828
2016-06-15T06:39:43.232Z,12132
2016-06-15T06:40:43.251Z,12496
2016-06-15T06:41:56.129Z,12828
2016-06-15T06:42:55.882Z,12940
2016-06-15T06:44:09.947Z,12724
2016-06-15T06:45:09.341Z,12336
2016-06-15T06:47:17.882Z,11632
2016-06-15T06:47:58.804Z,11384
2016-06-15T06:50:01.310Z,10544
2016-06-15T06:50:33.048Z,10460
2016-06-15T06:51:26.988Z,10132
2016-06-15T06:52:13.913Z,9932
2016-06-15T06:54:29.278Z,9928
2016-06-15T06:56:27.034Z,10108
2016-06-15T06:56:39.612Z,10128
2016-06-15T06:57:39.585Z,10228
2016-06-15T06:58:52.447Z,10348
2016-06-15T06:59:52.341Z,10436
2016-06-15T07:01:05.313Z,10548
2016-06-15T07:02:05.425Z,10692
2016-06-15T07:02:39.741Z,10788
2016-06-15T07:05:20.515Z,11552
2016-06-15T07:05:55.125Z,11736
2016-06-15T07:06:54.800Z,12052
2016-06-15T07:07:57.928Z,12392
2016-06-15T07:08:56.587Z,12692
2016-06-15T07:10:09.512Z,13020
2016-06-15T07:10:58.374Z,13224
2016-06-15T07:12:20.802Z,13400
2016-06-15T07:13:14.244Z,13492
2016-06-15T07:14:26.558Z,13564
2016-06-15T07:14:55.199Z,13588
2016-06-15T07:15:55.171Z,13612
2016-06-15T07:16:56.596Z,13612
2016-06-15T07:18:07.990Z,13548
2016-06-15T07:18:58.274Z,13488
2016-06-15T07:20:14.515Z,13372
2016-06-15T07:21:08.046Z,13296
2016-06-15T07:22:22.739Z,13184
2016-06-15T07:22:55.302Z,13144
2016-06-15T07:24:52.136Z,12996
2016-06-15T07:25:04.808Z,12924
2016-06-15T07:26:24.173Z,12768
2016-06-15T07:27:04.876Z,12652
2016-06-15T07:28:33.618Z,12528
2016-06-15T07:29:07.977Z,12504
2016-06-15T07:30:11.261Z,12484
2016-06-15T07:31:17.517Z,12456
2016-06-15T07:33:01.958Z,12392
2016-06-15T07:33:40.320Z,12344
2016-06-15T07:34:14.667Z,12256
2016-06-15T07:36:09.076Z,11908
2016-06-15T07:36:21.860Z,11932
2016-06-15T07:37:22.145Z,12236
2016-06-15T07:38:24.835Z,12928
2016-06-15T07:39:34.573Z,14104
2016-06-15T07:40:34.577Z,15488
2016-06-15T07:42:38.660Z,18880
2016-06-15T07:42:51.550Z,19328
2016-06-15T07:43:51.461Z,21696
2016-06-15T07:45:04.057Z,21824
2016-06-15T07:45:52.873Z,21952
2016-06-15T07:47:48.473Z,22592
2016-06-15T07:48:07.238Z,23808
2016-06-15T07:49:07.288Z,31456
2016-06-15T07:50:07.510Z,30272
2016-06-15T07:51:21.110Z,24480
2016-06-15T07:52:07.578Z,22848
2016-06-15T07:54:10.131Z,28896
2016-06-15T07:54:42.087Z,31776
2016-06-15T07:55:22.732Z,31904
2016-06-15T07:56:25.876Z,23872
2016-06-15T07:57:32.160Z,23616
2016-06-15T07:58:35.756Z,27584
2016-06-15T08:00:19.903Z,37184
2016-06-15T08:01:23.078Z,30368
2016-06-15T08:01:35.750Z,30592
2016-06-15T08:02:35.784Z,28832
2016-06-15T08:03:38.865Z,32736
2016-06-15T08:04:35.837Z,32256
2016-06-15T08:05:35.949Z,30368
2016-06-15T08:06:39.250Z,23520
2016-06-15T08:07:38.893Z,21824
2016-06-15T08:08:48.694Z,20704
2016-06-15T08:09:55.275Z,19168
2016-06-15T08:10:55.746Z,18432
2016-06-15T08:12:07.312Z,17792
2016-06-15T08:12:36.142Z,17856
2016-06-15T08:13:36.115Z,17952
2016-06-15T08:14:48.931Z,26880
2016-06-15T08:15:36.184Z,35008
2016-06-15T08:17:45.846Z,20416
2016-06-15T08:18:45.927Z,27008
2016-06-15T08:19:58.617Z,22336
2016-06-15T08:20:58.714Z,20032
2016-06-15T08:22:20.783Z,19072
2016-06-15T08:23:12.033Z,18784
2016-06-15T08:23:49.334Z,19104
2016-06-15T08:24:46.040Z,22112
2016-06-15T08:25:45.933Z,23136
2016-06-15T08:27:17.252Z,22816
2016-06-15T08:27:49.158Z,22528
2016-06-15T08:28:46.177Z,22304
2016-06-15T08:30:05.539Z,21472
2016-06-15T08:30:48.901Z,21536
2016-06-15T08:32:55.893Z,20416
2016-06-15T08:34:21.446Z,19424
2016-06-15T08:35:08.821Z,18976
2016-06-15T08:38:31.347Z,18944
2016-06-15T08:39:15.347Z,19232
2016-06-15T08:41:12.307Z,20800
2016-06-15T08:41:24.982Z,20928
2016-06-15T08:42:25.032Z,21760
2016-06-15T08:43:25.051Z,22464
2016-06-15T08:44:28.116Z,23136
2016-06-15T08:45:44.183Z,23456
2016-06-15T08:46:28.169Z,23456
2016-06-15T08:48:22.206Z,23168
2016-06-15T08:48:36.144Z,23040
2016-06-15T08:49:34.756Z,22688
2016-06-15T08:50:49.354Z,22208
2016-06-15T08:51:35.590Z,21920
2016-06-15T08:52:55.079Z,21536
2016-06-15T08:53:54.237Z,21344
2016-06-15T08:55:06.335Z,21120
2016-06-15T08:55:54.307Z,21120
2016-06-15T08:57:35.156Z,20832
2016-06-15T08:58:35.191Z,20576
2016-06-15T08:59:35.209Z,20352
2016-06-15T09:00:54.415Z,20032
2016-06-15T09:01:38.388Z,19872
2016-06-15T09:03:06.172Z,19680
2016-06-15T09:03:39.863Z,19552
2016-06-15T09:05:41.041Z,19424
2016-06-15T09:06:12.916Z,19360
2016-06-15T09:06:54.106Z,19136
2016-06-15T09:08:59.379Z,18272
2016-06-15T09:09:12.051Z,18144
2016-06-15T09:10:24.803Z,18496
2016-06-15T09:11:24.853Z,19520
2016-06-15T09:12:31.359Z,20064
2016-06-15T09:13:37.668Z,20704
2016-06-15T09:14:21.638Z,21216
2016-06-15T09:15:21.530Z,21536
2016-06-15T09:16:40.877Z,20896
2016-06-15T09:17:21.568Z,21056
2016-06-15T09:18:47.308Z,21472
2016-06-15T09:19:31.277Z,21504
2016-06-15T09:20:44.061Z,21120
2016-06-15T09:21:45.050Z,20896
2016-06-15T09:22:57.165Z,20416
2016-06-15T09:23:31.540Z,20928
2016-06-15T09:25:49.564Z,19936
2016-06-15T09:27:08.771Z,20544
2016-06-15T09:27:51.008Z,21152
2016-06-15T09:30:04.915Z,22208
2016-06-15T09:31:05.058Z,22592
2016-06-15T09:32:17.672Z,22624
2016-06-15T09:33:06.518Z,22944
2016-06-15T09:35:14.509Z,23648
2016-06-15T09:37:11.654Z,23968
2016-06-15T09:37:44.795Z,24032
2016-06-15T09:38:25.782Z,24032
2016-06-15T09:39:25.817Z,23968
2016-06-15T09:40:27.274Z,23840
2016-06-15T09:41:25.886Z,23680
2016-06-15T09:42:25.748Z,23264
2016-06-15T09:43:38.689Z,22784
2016-06-15T09:44:38.676Z,22272
2016-06-15T09:45:45.212Z,21504
2016-06-15T09:47:28.592Z,20128
2016-06-15T09:47:47.420Z,19936
2016-06-15T09:48:41.173Z,19424
2016-06-15T09:50:00.444Z,19104
2016-06-15T09:50:44.366Z,19168
2016-06-15T09:52:58.814Z,20352
2016-06-15T09:54:22.706Z,21632
2016-06-15T09:54:57.023Z,21984
2016-06-15T09:56:59.654Z,22880
2016-06-15T09:57:12.404Z,22944
2016-06-15T09:58:12.376Z,23456
2016-06-15T10:00:28.257Z,24768
2016-06-15T10:01:28.431Z,25344
2016-06-15T10:02:41.247Z,25760
2016-06-15T10:04:57.409Z,26624
2016-06-15T10:05:31.846Z,26784
2016-06-15T10:08:06.975Z,25984
2016-06-15T10:08:47.022Z,25600
2016-06-15T10:10:49.821Z,23904
2016-06-15T10:11:02.556Z,23712
2016-06-15T10:13:31.248Z,20576
2016-06-15T10:14:05.824Z,20256
2016-06-15T10:15:25.082Z,19968
2016-06-15T10:16:31.855Z,19232
2016-06-15T10:18:31.372Z,18496
2016-06-15T10:18:44.028Z,18016
2016-06-15T10:19:43.895Z,17984
2016-06-15T10:21:03.452Z,18656
2016-06-15T10:21:54.238Z,19936
2016-06-15T10:23:13.555Z,22368
2016-06-15T10:24:44.434Z,20352
2016-06-15T10:26:12.567Z,18048
2016-06-15T10:27:25.116Z,17024
2016-06-15T10:28:13.948Z,16672
2016-06-15T10:30:23.299Z,17440
2016-06-15T10:32:51.400Z,19936
2016-06-15T10:33:39.450Z,19840
2016-06-15T10:36:32.554Z,19200
2016-06-15T10:37:41.917Z,17824
2016-06-15T10:38:44.185Z,17632
2016-06-15T10:39:58.125Z,17344
2016-06-15T10:41:14.148Z,15680
2016-06-15T10:42:15.604Z,14188
2016-06-15T10:43:27.013Z,13956
2016-06-15T10:44:26.204Z,13932
2016-06-15T10:45:03.719Z,13768
2016-06-15T10:46:38.039Z,13732
2016-06-15T10:48:58.122Z,13324
2016-06-15T10:49:50.579Z,12800
2016-06-15T10:52:43.775Z,11428
2016-06-15T10:53:48.903Z,11308
2016-06-15T10:55:18.566Z,10756
2016-06-15T10:55:57.284Z,10348
2016-06-15T10:58:02.931Z,10200
2016-06-15T10:58:28.372Z,10228
2016-06-15T10:59:15.657Z,10252
2016-06-15T11:01:25.132Z,9820
2016-06-15T11:02:44.556Z,9352
2016-06-15T11:03:53.856Z,9620
2016-06-15T11:04:47.578Z,10228
2016-06-15T11:06:06.972Z,10420
2016-06-15T11:06:53.991Z,10832
2016-06-15T11:08:13.384Z,11684
2016-06-15T11:09:31.235Z,12460
2016-06-15T11:10:15.721Z,12464
2016-06-15T11:10:43.955Z,12728
2016-06-15T11:11:43.991Z,13668
2016-06-15T11:12:45.416Z,15232
2016-06-15T11:13:56.762Z,17408
2016-06-15T11:14:56.952Z,17824
2016-06-15T11:16:09.878Z,16992
2016-06-15T11:17:04.724Z,16320
2016-06-15T11:18:39.185Z,15904
2016-06-15T11:18:54.778Z,15608
2016-06-15T11:21:10.347Z,14976
2016-06-15T11:23:13.836Z,16608
2016-06-15T11:23:39.324Z,17280
2016-06-15T11:24:26.562Z,16544
2016-06-15T11:25:26.486Z,14492
2016-06-15T11:26:28.052Z,13672
2016-06-15T11:27:28.133Z,13012
2016-06-15T11:28:29.714Z,12704
2016-06-15T11:29:39.436Z,12468
2016-06-15T11:30:39.455Z,11308
2016-06-15T11:31:52.442Z,10360
2016-06-15T11:33:01.867Z,10384
2016-06-15T11:33:55.651Z,10220
2016-06-15T11:35:10.936Z,10312
2016-06-15T11:37:52.288Z,14368
2016-06-15T11:38:20.448Z,14808
2016-06-15T11:39:51.873Z,14940
2016-06-15T11:40:30.297Z,15616
2016-06-15T11:41:30.426Z,15268
2016-06-15T11:42:49.508Z,17056
2016-06-15T11:43:30.182Z,17088
2016-06-15T11:44:30.342Z,16576
2016-06-15T11:45:30.517Z,15420
2016-06-15T11:46:30.864Z,13940
2016-06-15T11:47:30.460Z,13032
2016-06-15T11:48:43.307Z,12728
2016-06-15T11:49:31.905Z,12796
2016-06-15T11:52:05.473Z,13864
2016-06-15T11:52:59.117Z,15168
2016-06-15T11:54:17.607Z,15712
2016-06-15T11:55:01.685Z,14988
2016-06-15T11:56:20.816Z,12356
2016-06-15T11:57:17.616Z,10872
2016-06-15T11:58:23.947Z,10180
2016-06-15T12:00:01.889Z,10452
2016-06-15T12:01:11.703Z,10980
2016-06-15T12:02:05.988Z,11724
2016-06-15T12:04:43.638Z,11540
2016-06-15T12:05:30.937Z,11536
2016-06-15T12:08:06.474Z,12388
2016-06-15T12:09:40.934Z,11572
2016-06-15T12:10:19.312Z,10848
2016-06-15T12:11:44.143Z,9892
2016-06-15T12:12:59.506Z,9828
2016-06-15T12:13:41.009Z,9944
2016-06-15T12:16:30.908Z,10416
2016-06-15T12:17:14.924Z,10540
2016-06-15T12:17:53.286Z,10628
2016-06-15T12:19:56.153Z,10876
2016-06-15T12:20:47.406Z,10816
2016-06-15T12:21:08.937Z,10756
2016-06-15T12:22:40.051Z,10964
2016-06-15T12:23:24.165Z,11124
2016-06-15T12:24:43.402Z,11488
2016-06-15T12:25:36.827Z,11720
2016-06-15T12:28:04.864Z,10896
2016-06-15T12:28:39.242Z,10656
2016-06-15T12:30:41.999Z,10172
2016-06-15T12:31:20.424Z,10152
2016-06-15T12:31:54.909Z,10172
2016-06-15T12:33:57.304Z,10732
2016-06-15T12:34:35.511Z,11000
2016-06-15T12:35:09.902Z,11260
2016-06-15T12:36:10.280Z,11784
2016-06-15T12:37:10.016Z,12276
2016-06-15T12:38:22.773Z,12932
2016-06-15T12:39:22.886Z,13540
2016-06-15T12:40:29.358Z,13912
2016-06-15T12:41:36.001Z,13832
2016-06-15T12:44:10.413Z,13652
2016-06-15T12:44:51.199Z,13728
2016-06-15T12:46:53.783Z,13352
2016-06-15T12:47:32.129Z,13236
2016-06-15T12:48:06.520Z,13276
2016-06-15T12:49:37.901Z,13504
2016-06-15T12:50:16.260Z,13576
2016-06-15T12:52:57.426Z,14112
2016-06-15T12:53:31.632Z,14288
2016-06-15T12:54:31.511Z,14680
2016-06-15T12:55:31.528Z,15096
2016-06-15T12:56:31.688Z,15436
2016-06-15T12:57:39.394Z,15888
2016-06-15T12:58:33.195Z,16480
2016-06-15T13:00:45.404Z,17248
2016-06-15T13:01:58.032Z,17248
2016-06-15T13:03:45.507Z,17344
2016-06-15T13:04:23.713Z,17472
2016-06-15T13:05:13.869Z,17696
2016-06-15T13:07:51.769Z,18976
2016-06-15T13:10:00.932Z,19456
2016-06-15T13:10:39.309Z,19616
2016-06-15T13:12:10.609Z,19744
2016-06-15T13:12:48.972Z,19840
2016-06-15T13:14:20.275Z,19680
2016-06-15T13:14:52.337Z,19616
2016-06-15T13:16:23.328Z,19776
2016-06-15T13:17:11.234Z,19872
2016-06-15T13:19:32.634Z,19904
2016-06-15T13:20:20.216Z,19968
2016-06-15T13:21:45.640Z,19840
2016-06-15T13:22:23.908Z,19904
2016-06-15T13:24:35.696Z,20000
2016-06-15T13:25:54.825Z,19904
2016-06-15T13:26:37.187Z,19968
2016-06-15T13:27:35.690Z,20064
2016-06-15T13:28:37.176Z,20160
2016-06-15T13:29:37.149Z,20096
2016-06-15T13:30:48.371Z,20128
2016-06-15T13:31:48.561Z,20032
2016-06-15T13:33:07.127Z,19840
2016-06-15T13:34:04.692Z,19616
2016-06-15T13:36:13.511Z,18848
2016-06-15T13:36:54.296Z,18016
2016-06-15T13:38:26.302Z,15648
2016-06-15T13:39:07.115Z,13928
2016-06-15T13:39:54.288Z,11732
2016-06-15T13:40:54.433Z,9044
2016-06-15T13:41:54.467Z,7620
2016-06-15T13:42:54.517Z,7292
2016-06-15T13:43:54.536Z,7220
2016-06-15T13:44:55.993Z,7368
2016-06-15T13:45:54.589Z,8092
2016-06-15T13:47:13.810Z,9712
2016-06-15T13:49:16.927Z,11428
2016-06-15T13:50:17.149Z,12296
2016-06-15T13:52:00.497Z,13772
2016-06-15T13:52:38.923Z,14204
2016-06-15T13:53:13.142Z,14576
2016-06-15T13:55:28.542Z,14836
2016-06-15T13:56:54.045Z,14804
2016-06-15T13:57:28.594Z,14848
2016-06-15T13:58:54.254Z,14836
2016-06-15T13:59:38.225Z,14656
2016-06-15T14:00:38.338Z,14512
2016-06-15T14:01:41.325Z,14660
2016-06-15T14:02:51.079Z,14612
2016-06-15T14:03:51.081Z,14156
2016-06-15T14:04:38.382Z,13652
2016-06-15T14:05:38.213Z,13364
2016-06-15T14:06:41.482Z,13288
2016-06-15T14:07:41.782Z,12928
2016-06-15T14:08:51.722Z,12236
2016-06-15T14:09:57.756Z,11624
2016-06-15T14:10:38.541Z,11304
2016-06-15T14:12:44.173Z,10360
2016-06-15T14:12:56.876Z,10236
2016-06-15T14:13:56.893Z,9780
2016-06-15T14:14:56.913Z,9256
2016-06-15T14:16:09.682Z,8648
2016-06-15T14:16:58.528Z,8336
2016-06-15T14:17:57.016Z,8020
2016-06-15T14:18:57.066Z,7812
2016-06-15T14:19:57.194Z,7880
2016-06-15T14:21:09.915Z,7960
2016-06-15T14:22:09.887Z,7984
2016-06-15T14:22:57.187Z,8116
2016-06-15T14:24:22.956Z,8916
2016-06-15T14:25:32.478Z,9440
2016-06-15T14:26:06.947Z,10296
2016-06-15T14:27:45.390Z,11628
2016-06-15T14:28:07.046Z,12048
2016-06-15T14:29:26.237Z,13224
2016-06-15T14:30:20.100Z,13872
2016-06-15T14:31:07.102Z,14420
2016-06-15T14:33:04.076Z,16256
2016-06-15T14:33:16.780Z,16512
2016-06-15T14:34:16.830Z,17696
2016-06-15T14:35:36.024Z,19104
2016-06-15T14:36:26.258Z,19616
2016-06-15T14:38:55.393Z,20576
2016-06-15T14:40:20.177Z,20800
2016-06-15T14:41:04.149Z,20928
2016-06-15T14:41:45.636Z,20896
2016-06-15T14:42:34.326Z,20736
2016-06-15T14:43:32.940Z,20576
2016-06-15T14:44:32.973Z,20608
2016-06-15T14:45:32.992Z,20704
2016-06-15T14:46:32.885Z,20768
2016-06-15T14:47:34.467Z,20800
2016-06-15T14:48:34.517Z,20768
2016-06-15T14:49:34.536Z,20544
2016-06-15T14:50:33.273Z,20384
2016-06-15T14:51:33.182Z,20192
2016-06-15T14:52:33.201Z,20000
2016-06-15T14:53:33.079Z,19776
2016-06-15T14:54:52.613Z,19680
2016-06-15T14:55:36.586Z,19520
2016-06-15T14:57:02.401Z,19328
2016-06-15T14:57:49.232Z,19264
2016-06-15T14:59:07.970Z,19168
2016-06-15T14:59:56.207Z,19008
2016-06-15T15:00:36.772Z,18976
2016-06-15T15:02:08.041Z,18848
2016-06-15T15:02:39.841Z,18784
2016-06-15T15:04:07.938Z,18688
2016-06-15T15:04:47.722Z,18560